createdAt,value
2022-12-25T00:03:23.538Z,3.63
2022-12-25T00:08:15.604Z,3.30
2022-12-25T00:13:07.565Z,3.60
2022-12-25T00:17:59.634Z,3.67
2022-12-25T00:22:51.617Z,3.10
2022-12-25T00:27:43.535Z,3.40
2022-12-25T00:32:37.110Z,3.17
2022-12-25T00:37:29.111Z,10.17
2022-12-25T00:42:21.079Z,3.67
2022-12-25T00:47:13.251Z,3.30
2022-12-25T00:52:05.465Z,2.83
2022-12-25T00:56:57.497Z,2.50
2022-12-25T01:01:49.737Z,2.77
2022-12-25T01:06:42.008Z,2.60
2022-12-25T01:11:34.029Z,2.80
2022-12-25T01:16:26.484Z,2.80
2022-12-25T01:21:22.870Z,3.03
2022-12-25T01:26:16.057Z,2.90
2022-12-25T01:31:18.395Z,3.07
2022-12-25T01:36:26.715Z,2.43
2022-12-25T01:41:24.689Z,2.37
2022-12-25T01:46:16.818Z,1.90
2022-12-25T01:51:30.667Z,2.40
2022-12-25T01:56:22.931Z,2.27
2022-12-25T02:01:15.158Z,2.27
2022-12-25T02:06:11.219Z,2.30
2022-12-25T02:11:06.510Z,1.87
2022-12-25T02:16:13.370Z,3.37
2022-12-25T02:21:49.409Z,2.37
2022-12-25T02:27:04.563Z,2.30
2022-12-25T02:32:10.929Z,2.07
2022-12-25T02:37:26.816Z,2.93
2022-12-25T02:42:57.891Z,2.53
2022-12-25T02:48:09.910Z,2.30
2022-12-25T02:53:16.956Z,2.20
2022-12-25T02:58:31.569Z,2.73
2022-12-25T03:03:44.389Z,2.33
2022-12-25T03:08:43.021Z,2.47
2022-12-25T03:13:38.884Z,2.40
2022-12-25T03:18:32.531Z,2.40
2022-12-25T03:23:47.996Z,3.40
2022-12-25T03:28:39.941Z,2.23
2022-12-25T03:34:10.441Z,2.50
2022-12-25T03:39:46.152Z,2.00
2022-12-25T03:45:41.114Z,3.70
2022-12-25T03:51:09.322Z,2.80
2022-12-25T03:56:20.703Z,3.47
2022-12-25T04:01:33.108Z,4.30
2022-12-25T04:06:43.561Z,4.33
2022-12-25T04:11:58.819Z,4.17
2022-12-25T04:17:12.474Z,4.10
2022-12-25T04:22:22.928Z,3.80
2022-12-25T04:27:33.244Z,3.47
2022-12-25T04:32:43.671Z,3.27
2022-12-25T04:37:35.574Z,3.53
2022-12-25T04:42:28.695Z,3.90
2022-12-25T04:47:20.609Z,3.87
2022-12-25T04:52:12.653Z,4.23
2022-12-25T04:57:04.935Z,4.13
2022-12-25T05:01:56.986Z,3.57
2022-12-25T05:06:49.211Z,4.07
2022-12-25T05:11:41.252Z,4.10
2022-12-25T05:16:33.399Z,3.43
2022-12-25T05:21:26.739Z,3.60
2022-12-25T05:26:21.774Z,3.60
2022-12-25T05:31:14.071Z,4.53
2022-12-25T05:36:08.196Z,3.70
2022-12-25T05:41:00.541Z,3.20
2022-12-25T05:45:53.743Z,3.83
2022-12-25T05:50:45.839Z,3.80
2022-12-25T05:55:40.108Z,5.10
2022-12-25T06:00:32.259Z,4.80
2022-12-25T06:05:26.718Z,3.33
2022-12-25T06:10:19.161Z,3.87
2022-12-25T06:15:11.191Z,4.93
2022-12-25T06:20:04.897Z,4.83
2022-12-25T06:24:57.213Z,4.20
2022-12-25T06:29:49.244Z,4.13
2022-12-25T06:34:43.242Z,4.20
2022-12-25T06:39:35.214Z,4.00
2022-12-25T06:44:27.354Z,4.47
2022-12-25T06:49:19.444Z,4.17
2022-12-25T06:54:11.437Z,4.37
2022-12-25T06:59:06.544Z,3.87
2022-12-25T07:04:01.902Z,5.00
2022-12-25T07:08:53.901Z,4.77
2022-12-25T07:13:45.935Z,5.27
2022-12-25T07:18:38.291Z,5.57
2022-12-25T07:23:30.241Z,13.57
2022-12-25T07:28:22.353Z,6.57
2022-12-25T07:33:14.462Z,8.50
2022-12-25T07:38:06.436Z,7.67
2022-12-25T07:42:58.392Z,5.77
2022-12-25T07:47:53.778Z,6.23
2022-12-25T07:52:47.046Z,6.37
2022-12-25T07:57:39.427Z,5.00
2022-12-25T08:02:31.585Z,5.30
2022-12-25T08:07:24.160Z,5.13
2022-12-25T08:12:16.698Z,5.23
2022-12-25T08:17:08.851Z,6.03
2022-12-25T08:22:00.961Z,5.40
2022-12-25T08:26:53.013Z,5.40
2022-12-25T08:31:46.666Z,4.97
2022-12-25T08:36:38.761Z,4.87
2022-12-25T08:41:31.541Z,4.53
2022-12-25T08:46:24.008Z,4.60
2022-12-25T08:51:19.005Z,4.90
2022-12-25T08:56:11.555Z,5.43
2022-12-25T09:01:04.200Z,4.73
2022-12-25T09:05:56.413Z,5.20
2022-12-25T09:10:49.911Z,5.60
2022-12-25T09:15:42.005Z,5.10
2022-12-25T09:20:34.033Z,5.33
2022-12-25T09:25:27.306Z,5.73
2022-12-25T09:30:19.362Z,6.27
2022-12-25T09:35:11.463Z,5.57
2022-12-25T09:40:04.521Z,5.70
2022-12-25T09:45:03.084Z,4.30
2022-12-25T09:49:58.149Z,5.33
2022-12-25T09:55:06.413Z,4.90
2022-12-25T09:59:59.866Z,5.23
2022-12-25T10:05:19.668Z,4.70
2022-12-25T10:10:32.856Z,4.93
2022-12-25T10:15:50.421Z,4.77
2022-12-25T10:20:48.384Z,4.60
2022-12-25T10:25:41.514Z,3.80
2022-12-25T10:30:33.887Z,4.63
2022-12-25T10:35:31.333Z,4.57
2022-12-25T10:40:23.228Z,4.63
2022-12-25T10:45:15.358Z,4.03
2022-12-25T10:50:20.301Z,3.90
2022-12-25T10:55:22.367Z,3.63
2022-12-25T11:00:25.545Z,4.37
2022-12-25T11:05:28.602Z,4.63
2022-12-25T11:10:50.049Z,3.70
2022-12-25T11:15:49.880Z,4.23
2022-12-25T11:20:58.297Z,4.00
2022-12-25T11:26:06.152Z,3.93
2022-12-25T11:31:04.192Z,4.00
2022-12-25T11:35:58.314Z,4.43
2022-12-25T11:40:54.938Z,4.80
2022-12-25T11:45:58.878Z,5.30
2022-12-25T11:50:55.530Z,5.27
2022-12-25T11:55:59.259Z,4.77
2022-12-25T12:00:54.251Z,5.07
2022-12-25T12:05:59.942Z,4.20
2022-12-25T12:11:27.839Z,4.33
2022-12-25T12:16:19.920Z,5.00
2022-12-25T12:21:23.929Z,4.93
2022-12-25T12:26:27.598Z,5.20
2022-12-25T12:31:19.742Z,5.43
2022-12-25T12:36:14.516Z,5.73
2022-12-25T12:41:10.438Z,5.47
2022-12-25T12:46:30.995Z,6.03
2022-12-25T12:51:36.133Z,5.80
2022-12-25T12:56:29.370Z,5.93
2022-12-25T13:01:27.701Z,5.00
2022-12-25T13:06:34.841Z,5.10
2022-12-25T13:11:30.078Z,4.70
2022-12-25T13:16:32.431Z,4.77
2022-12-25T13:21:27.373Z,5.00
2022-12-25T13:26:19.393Z,4.90
2022-12-25T13:31:21.877Z,6.33
2022-12-25T13:36:14.543Z,6.33
2022-12-25T13:41:25.304Z,5.77
2022-12-25T13:46:26.845Z,5.80
2022-12-25T13:51:20.788Z,6.20
2022-12-25T13:56:15.951Z,5.43
2022-12-25T14:01:11.747Z,5.97
2022-12-25T14:06:07.499Z,6.07
2022-12-25T14:11:05.439Z,5.97
2022-12-25T14:15:58.226Z,6.00
2022-12-25T14:21:13.522Z,5.37
2022-12-25T14:26:05.604Z,6.63
2022-12-25T14:30:58.209Z,5.30
2022-12-25T14:35:51.110Z,5.50
2022-12-25T14:40:45.388Z,5.73
2022-12-25T14:45:41.197Z,6.00
2022-12-25T14:50:41.448Z,5.43
2022-12-25T14:55:35.992Z,5.63
2022-12-25T15:00:37.963Z,5.17
2022-12-25T15:05:40.104Z,5.53
2022-12-25T15:16:11.860Z,4.60
2022-12-25T15:21:04.058Z,4.53
2022-12-25T15:25:56.059Z,5.17
2022-12-25T15:30:49.818Z,5.03
2022-12-25T15:35:44.354Z,5.30
2022-12-25T15:40:36.551Z,5.33
2022-12-25T15:45:30.483Z,6.37
2022-12-25T15:50:22.926Z,5.70
2022-12-25T15:55:15.584Z,5.93
2022-12-25T16:00:13.593Z,6.60
2022-12-25T16:05:10.505Z,5.93
2022-12-25T16:10:02.781Z,6.17
2022-12-25T16:14:54.780Z,6.17
2022-12-25T16:19:46.851Z,6.93
2022-12-25T16:24:39.029Z,6.60
2022-12-25T16:29:31.074Z,7.27
2022-12-25T16:34:23.080Z,8.00
2022-12-25T16:39:15.020Z,8.47
2022-12-25T16:44:10.393Z,8.30
2022-12-25T16:49:02.676Z,9.17
2022-12-25T16:53:55.879Z,9.37
2022-12-25T16:58:48.248Z,9.90
2022-12-25T17:03:40.367Z,9.57
2022-12-25T17:08:32.406Z,10.40
2022-12-25T17:13:24.322Z,9.67
2022-12-25T17:18:17.507Z,10.10
2022-12-25T17:23:10.689Z,10.43
2022-12-25T17:28:02.626Z,10.50
2022-12-25T17:32:55.279Z,9.93
2022-12-25T17:37:47.236Z,10.27
2022-12-25T17:42:39.384Z,10.00
2022-12-25T17:47:31.473Z,9.30
2022-12-25T17:52:23.498Z,10.87
2022-12-25T17:57:15.463Z,10.37
2022-12-25T18:02:08.778Z,9.80
2022-12-25T18:07:00.852Z,10.70
2022-12-25T18:11:52.884Z,9.97
2022-12-25T18:16:45.937Z,10.53
2022-12-25T18:21:38.322Z,9.70
2022-12-25T18:26:30.379Z,10.00
2022-12-25T18:31:25.271Z,9.87
2022-12-25T18:36:21.007Z,10.93
2022-12-25T18:41:14.712Z,9.83
2022-12-25T18:46:07.416Z,8.77
2022-12-25T18:51:15.115Z,8.57
2022-12-25T18:56:18.143Z,8.23
2022-12-25T19:01:21.612Z,8.47
2022-12-25T19:06:29.234Z,8.37
2022-12-25T19:11:22.713Z,7.87
2022-12-25T19:16:14.829Z,7.00
2022-12-25T19:21:08.939Z,8.30
2022-12-25T19:26:03.387Z,8.53
2022-12-25T19:30:55.336Z,8.17
2022-12-25T19:35:48.315Z,8.10
2022-12-25T19:40:41.189Z,7.50
2022-12-25T19:45:34.564Z,7.53
2022-12-25T19:50:28.625Z,7.83
2022-12-25T19:55:22.051Z,7.63
2022-12-25T20:00:14.314Z,7.17
2022-12-25T20:05:06.534Z,6.67
2022-12-25T20:09:58.991Z,5.73
2022-12-25T20:14:50.934Z,5.70
2022-12-25T20:19:42.925Z,5.77
2022-12-25T20:24:34.915Z,6.17
2022-12-25T20:29:27.087Z,6.00
2022-12-25T20:34:19.104Z,4.93
2022-12-25T20:39:12.457Z,5.10
2022-12-25T20:44:06.477Z,5.83
2022-12-25T20:48:58.641Z,5.53
2022-12-25T20:53:51.073Z,5.33
2022-12-25T20:58:43.573Z,5.37
2022-12-25T21:03:35.824Z,4.80
2022-12-25T21:08:28.388Z,6.13
2022-12-25T21:13:22.193Z,5.37
2022-12-25T21:18:15.287Z,5.67
2022-12-25T21:23:08.988Z,5.77
2022-12-25T21:28:03.587Z,6.50
2022-12-25T21:33:17.353Z,6.10
2022-12-25T21:38:10.291Z,6.77
2022-12-25T21:43:02.723Z,6.43
2022-12-25T21:48:00.162Z,5.90
2022-12-25T21:52:56.827Z,6.27
2022-12-25T21:57:50.440Z,6.60
2022-12-25T22:02:42.570Z,6.83
2022-12-25T22:07:35.425Z,6.43
2022-12-25T22:12:46.210Z,6.40
2022-12-25T22:18:02.193Z,12.07
2022-12-25T22:22:56.798Z,6.93
2022-12-25T22:27:52.739Z,7.50
2022-12-25T22:32:46.372Z,6.70
2022-12-25T22:37:39.337Z,7.00
2022-12-25T22:42:31.821Z,7.37
2022-12-25T22:47:24.417Z,6.77
2022-12-25T22:52:16.713Z,6.80
2022-12-25T22:57:08.771Z,6.83
2022-12-25T23:02:01.557Z,6.60
2022-12-25T23:07:02.899Z,7.70
2022-12-25T23:11:58.937Z,6.57
2022-12-25T23:16:52.053Z,6.50
2022-12-25T23:22:02.880Z,6.07
2022-12-25T23:26:55.099Z,6.37
2022-12-25T23:31:54.025Z,6.53
2022-12-25T23:36:49.835Z,6.20
2022-12-25T23:41:45.547Z,6.20
2022-12-25T23:46:40.970Z,5.97
2022-12-25T23:51:36.225Z,6.03
2022-12-25T23:56:34.780Z,5.27
